sensor_id;sensor_type;location;lat;lon;timestamp;temperature;humidity
10155;DHT22;5118;48.570;7.916;2023-03-24T00:01:09;14.10;99.90
10155;DHT22;5118;48.570;7.916;2023-03-24T00:03:38;14.10;99.90
10155;DHT22;5118;48.570;7.916;2023-03-24T00:06:09;14.10;99.90
10155;DHT22;5118;48.570;7.916;2023-03-24T00:08:40;14.00;99.90
10155;DHT22;5118;48.570;7.916;2023-03-24T00:11:11;14.00;99.90
10155;DHT22;5118;48.570;7.916;2023-03-24T00:13:40;13.90;99.90
10155;DHT22;5118;48.570;7.916;2023-03-24T00:16:11;13.90;99.90
10155;DHT22;5118;48.570;7.916;2023-03-24T00:18:40;13.90;99.90
10155;DHT22;5118;48.570;7.916;2023-03-24T00:21:08;13.80;99.90
10155;DHT22;5118;48.570;7.916;2023-03-24T00:23:38;13.80;99.90
10155;DHT22;5118;48.570;7.916;2023-03-24T00:26:11;13.80;99.90
10155;DHT22;5118;48.570;7.916;2023-03-24T00:28:43;13.70;99.90
10155;DHT22;5118;48.570;7.916;2023-03-24T00:31:12;13.70;99.90
10155;DHT22;5118;48.570;7.916;2023-03-24T00:33:43;13.70;99.90
10155;DHT22;5118;48.570;7.916;2023-03-24T00:36:14;13.70;99.90
10155;DHT22;5118;48.570;7.916;2023-03-24T00:38:43;13.70;99.90
10155;DHT22;5118;48.570;7.916;2023-03-24T00:41:15;13.70;99.90
10155;DHT22;5118;48.570;7.916;2023-03-24T00:43:46;13.70;99.90
10155;DHT22;5118;48.570;7.916;2023-03-24T00:46:16;13.80;99.90
10155;DHT22;5118;48.570;7.916;2023-03-24T00:48:57;13.90;99.90
10155;DHT22;5118;48.570;7.916;2023-03-24T00:51:30;14.00;99.90
10155;DHT22;5118;48.570;7.916;2023-03-24T00:54:00;14.10;99.90
10155;DHT22;5118;48.570;7.916;2023-03-24T00:56:33;14.20;99.90
10155;DHT22;5118;48.570;7.916;2023-03-24T00:59:04;14.30;99.90
10155;DHT22;5118;48.570;7.916;2023-03-24T01:01:34;14.40;99.90
10155;DHT22;5118;48.570;7.916;2023-03-24T01:04:04;14.50;99.90
10155;DHT22;5118;48.570;7.916;2023-03-24T01:06:35;14.50;99.90
10155;DHT22;5118;48.570;7.916;2023-03-24T01:09:04;14.50;99.90
10155;DHT22;5118;48.570;7.916;2023-03-24T01:11:36;14.60;99.90
10155;DHT22;5118;48.570;7.916;2023-03-24T01:14:07;14.60;99.90
10155;DHT22;5118;48.570;7.916;2023-03-24T01:16:36;14.60;99.90
10155;DHT22;5118;48.570;7.916;2023-03-24T01:19:05;14.60;99.90
10155;DHT22;5118;48.570;7.916;2023-03-24T01:21:36;14.60;99.90
10155;DHT22;5118;48.570;7.916;2023-03-24T01:24:05;14.60;99.90
10155;DHT22;5118;48.570;7.916;2023-03-24T01:26:35;14.70;99.90
10155;DHT22;5118;48.570;7.916;2023-03-24T01:29:04;14.70;99.90
10155;DHT22;5118;48.570;7.916;2023-03-24T01:31:32;14.70;99.90
10155;DHT22;5118;48.570;7.916;2023-03-24T01:34:02;14.70;99.90
10155;DHT22;5118;48.570;7.916;2023-03-24T01:36:30;14.70;99.90
10155;DHT22;5118;48.570;7.916;2023-03-24T01:38:58;14.80;99.90
10155;DHT22;5118;48.570;7.916;2023-03-24T01:41:32;14.80;99.90
10155;DHT22;5118;48.570;7.916;2023-03-24T01:44:36;14.80;99.90
10155;DHT22;5118;48.570;7.916;2023-03-24T01:47:06;14.80;99.90
10155;DHT22;5118;48.570;7.916;2023-03-24T01:49:38;14.80;99.90
10155;DHT22;5118;48.570;7.916;2023-03-24T01:52:11;14.90;99.90
10155;DHT22;5118;48.570;7.916;2023-03-24T01:54:43;14.90;99.90
10155;DHT22;5118;48.570;7.916;2023-03-24T01:57:17;14.90;99.90
10155;DHT22;5118;48.570;7.916;2023-03-24T01:59:52;14.90;99.90
10155;DHT22;5118;48.570;7.916;2023-03-24T02:02:48;15.00;99.90
10155;DHT22;5118;48.570;7.916;2023-03-24T02:05:27;15.00;99.90
10155;DHT22;5118;48.570;7.916;2023-03-24T02:08:15;15.00;99.90
10155;DHT22;5118;48.570;7.916;2023-03-24T02:10:45;15.00;99.90
10155;DHT22;5118;48.570;7.916;2023-03-24T02:13:14;15.00;99.90
10155;DHT22;5118;48.570;7.916;2023-03-24T02:16:06;14.90;99.90
10155;DHT22;5118;48.570;7.916;2023-03-24T02:18:45;14.90;99.90
10155;DHT22;5118;48.570;7.916;2023-03-24T02:22:07;14.90;99.90
10155;DHT22;5118;48.570;7.916;2023-03-24T02:25:09;14.90;99.90
10155;DHT22;5118;48.570;7.916;2023-03-24T02:28:04;14.90;99.90
10155;DHT22;5118;48.570;7.916;2023-03-24T02:33:52;14.80;99.90
10155;DHT22;5118;48.570;7.916;2023-03-24T02:36:54;14.80;99.90
10155;DHT22;5118;48.570;7.916;2023-03-24T02:39:50;14.80;99.90
10155;DHT22;5118;48.570;7.916;2023-03-24T02:42:32;14.70;99.90
10155;DHT22;5118;48.570;7.916;2023-03-24T02:45:15;14.70;99.90
10155;DHT22;5118;48.570;7.916;2023-03-24T02:48:00;14.70;99.90
10155;DHT22;5118;48.570;7.916;2023-03-24T02:50:38;14.60;99.90
10155;DHT22;5118;48.570;7.916;2023-03-24T02:53:13;14.60;99.90
10155;DHT22;5118;48.570;7.916;2023-03-24T02:56:09;14.60;99.90
10155;DHT22;5118;48.570;7.916;2023-03-24T02:58:41;14.60;99.90
10155;DHT22;5118;48.570;7.916;2023-03-24T03:01:18;14.50;99.90
10155;DHT22;5118;48.570;7.916;2023-03-24T03:04:27;14.50;99.90
10155;DHT22;5118;48.570;7.916;2023-03-24T03:07:02;14.50;99.90
10155;DHT22;5118;48.570;7.916;2023-03-24T03:09:37;14.50;99.90
10155;DHT22;5118;48.570;7.916;2023-03-24T03:12:10;14.50;99.90
10155;DHT22;5118;48.570;7.916;2023-03-24T03:14:43;14.60;99.90
10155;DHT22;5118;48.570;7.916;2023-03-24T03:17:16;14.60;99.90
10155;DHT22;5118;48.570;7.916;2023-03-24T03:19:49;14.60;99.90
10155;DHT22;5118;48.570;7.916;2023-03-24T03:22:22;14.60;99.90
10155;DHT22;5118;48.570;7.916;2023-03-24T03:24:53;14.70;99.90
10155;DHT22;5118;48.570;7.916;2023-03-24T03:27:26;14.70;99.90
10155;DHT22;5118;48.570;7.916;2023-03-24T03:29:59;14.70;99.90
10155;DHT22;5118;48.570;7.916;2023-03-24T03:32:31;14.70;99.90
10155;DHT22;5118;48.570;7.916;2023-03-24T03:35:05;14.80;99.90
10155;DHT22;5118;48.570;7.916;2023-03-24T03:37:39;14.80;99.90
10155;DHT22;5118;48.570;7.916;2023-03-24T03:40:15;14.70;99.90
10155;DHT22;5118;48.570;7.916;2023-03-24T03:42:50;14.70;99.90
10155;DHT22;5118;48.570;7.916;2023-03-24T03:45:19;14.70;99.90
10155;DHT22;5118;48.570;7.916;2023-03-24T03:47:48;14.70;99.90
10155;DHT22;5118;48.570;7.916;2023-03-24T03:50:17;14.60;99.90
10155;DHT22;5118;48.570;7.916;2023-03-24T03:52:45;14.60;99.90
10155;DHT22;5118;48.570;7.916;2023-03-24T03:55:13;14.60;99.90
10155;DHT22;5118;48.570;7.916;2023-03-24T03:57:43;14.50;99.90
10155;DHT22;5118;48.570;7.916;2023-03-24T04:00:20;14.50;99.90
10155;DHT22;5118;48.570;7.916;2023-03-24T04:03:29;14.50;99.90
10155;DHT22;5118;48.570;7.916;2023-03-24T04:06:03;14.60;99.90
10155;DHT22;5118;48.570;7.916;2023-03-24T04:08:44;14.70;99.90
10155;DHT22;5118;48.570;7.916;2023-03-24T04:11:29;14.80;99.90
10155;DHT22;5118;48.570;7.916;2023-03-24T04:17:38;15.00;99.90
10155;DHT22;5118;48.570;7.916;2023-03-24T04:20:18;14.90;99.90
10155;DHT22;5118;48.570;7.916;2023-03-24T04:23:00;14.30;99.90
10155;DHT22;5118;48.570;7.916;2023-03-24T04:25:33;13.60;99.90
10155;DHT22;5118;48.570;7.916;2023-03-24T04:28:15;13.10;99.90
10155;DHT22;5118;48.570;7.916;2023-03-24T04:30:49;12.80;99.90
10155;DHT22;5118;48.570;7.916;2023-03-24T04:33:27;12.60;99.90
10155;DHT22;5118;48.570;7.916;2023-03-24T04:36:00;12.50;99.90
10155;DHT22;5118;48.570;7.916;2023-03-24T04:38:50;12.40;99.90
10155;DHT22;5118;48.570;7.916;2023-03-24T04:41:44;12.30;99.90
10155;DHT22;5118;48.570;7.916;2023-03-24T04:44:23;12.30;99.90
10155;DHT22;5118;48.570;7.916;2023-03-24T04:47:16;12.30;99.90
10155;DHT22;5118;48.570;7.916;2023-03-24T04:50:02;12.30;99.90
10155;DHT22;5118;48.570;7.916;2023-03-24T04:52:32;12.30;99.90
10155;DHT22;5118;48.570;7.916;2023-03-24T04:55:02;12.30;99.90
10155;DHT22;5118;48.570;7.916;2023-03-24T04:57:32;12.40;99.90
10155;DHT22;5118;48.570;7.916;2023-03-24T05:00:05;12.40;99.90
10155;DHT22;5118;48.570;7.916;2023-03-24T05:02:34;12.40;99.90
10155;DHT22;5118;48.570;7.916;2023-03-24T05:05:14;12.40;99.90
10155;DHT22;5118;48.570;7.916;2023-03-24T05:07:45;12.40;99.90
10155;DHT22;5118;48.570;7.916;2023-03-24T05:10:15;12.50;99.90
10155;DHT22;5118;48.570;7.916;2023-03-24T05:12:51;12.50;99.90
10155;DHT22;5118;48.570;7.916;2023-03-24T05:15:25;12.50;99.90
10155;DHT22;5118;48.570;7.916;2023-03-24T05:18:11;12.60;99.90
10155;DHT22;5118;48.570;7.916;2023-03-24T05:20:41;12.60;99.90
10155;DHT22;5118;48.570;7.916;2023-03-24T05:23:16;12.60;99.90
10155;DHT22;5118;48.570;7.916;2023-03-24T05:25:46;12.70;99.90
10155;DHT22;5118;48.570;7.916;2023-03-24T05:28:16;12.80;99.90
10155;DHT22;5118;48.570;7.916;2023-03-24T05:30:44;12.90;99.90
10155;DHT22;5118;48.570;7.916;2023-03-24T05:33:39;13.00;99.90
10155;DHT22;5118;48.570;7.916;2023-03-24T05:36:12;13.10;99.90
10155;DHT22;5118;48.570;7.916;2023-03-24T05:38:52;13.10;99.90
10155;DHT22;5118;48.570;7.916;2023-03-24T05:41:23;13.10;99.90
10155;DHT22;5118;48.570;7.916;2023-03-24T05:43:51;13.10;99.90
10155;DHT22;5118;48.570;7.916;2023-03-24T05:46:19;13.10;99.90
10155;DHT22;5118;48.570;7.916;2023-03-24T05:48:50;13.10;99.90
10155;DHT22;5118;48.570;7.916;2023-03-24T05:51:21;13.10;99.90
10155;DHT22;5118;48.570;7.916;2023-03-24T05:53:59;13.20;99.90
10155;DHT22;5118;48.570;7.916;2023-03-24T05:56:32;13.20;99.90
10155;DHT22;5118;48.570;7.916;2023-03-24T05:59:23;13.20;99.90
10155;DHT22;5118;48.570;7.916;2023-03-24T06:01:52;13.20;99.90
10155;DHT22;5118;48.570;7.916;2023-03-24T06:04:35;13.10;99.90
10155;DHT22;5118;48.570;7.916;2023-03-24T06:07:13;13.20;99.90
10155;DHT22;5118;48.570;7.916;2023-03-24T06:09:44;13.20;99.90
10155;DHT22;5118;48.570;7.916;2023-03-24T06:12:20;13.20;99.90
10155;DHT22;5118;48.570;7.916;2023-03-24T06:14:54;13.20;99.90
10155;DHT22;5118;48.570;7.916;2023-03-24T06:17:22;13.10;99.90
10155;DHT22;5118;48.570;7.916;2023-03-24T06:19:53;13.10;99.90
10155;DHT22;5118;48.570;7.916;2023-03-24T06:22:44;13.10;99.90
10155;DHT22;5118;48.570;7.916;2023-03-24T06:25:17;13.00;99.90
10155;DHT22;5118;48.570;7.916;2023-03-24T06:27:59;13.00;99.90
10155;DHT22;5118;48.570;7.916;2023-03-24T06:30:33;12.90;99.90
10155;DHT22;5118;48.570;7.916;2023-03-24T06:33:03;12.80;99.90
10155;DHT22;5118;48.570;7.916;2023-03-24T06:35:34;12.70;99.90
10155;DHT22;5118;48.570;7.916;2023-03-24T06:38:07;12.70;99.90
10155;DHT22;5118;48.570;7.916;2023-03-24T06:40:36;12.60;99.90
10155;DHT22;5118;48.570;7.916;2023-03-24T06:43:06;12.60;99.90
10155;DHT22;5118;48.570;7.916;2023-03-24T06:45:37;12.50;99.90
10155;DHT22;5118;48.570;7.916;2023-03-24T06:48:09;12.50;99.90
10155;DHT22;5118;48.570;7.916;2023-03-24T06:50:38;12.40;99.90
10155;DHT22;5118;48.570;7.916;2023-03-24T06:53:10;12.40;99.90
10155;DHT22;5118;48.570;7.916;2023-03-24T06:55:39;12.40;99.90
10155;DHT22;5118;48.570;7.916;2023-03-24T06:58:09;12.30;99.90
10155;DHT22;5118;48.570;7.916;2023-03-24T07:00:52;12.30;99.90
10155;DHT22;5118;48.570;7.916;2023-03-24T07:03:27;12.30;99.90
10155;DHT22;5118;48.570;7.916;2023-03-24T07:06:26;12.40;99.90
10155;DHT22;5118;48.570;7.916;2023-03-24T07:09:02;12.40;99.90
10155;DHT22;5118;48.570;7.916;2023-03-24T07:11:31;12.40;99.90
10155;DHT22;5118;48.570;7.916;2023-03-24T07:14:02;12.40;99.90
10155;DHT22;5118;48.570;7.916;2023-03-24T07:16:32;12.40;99.90
10155;DHT22;5118;48.570;7.916;2023-03-24T07:19:21;12.40;99.90
10155;DHT22;5118;48.570;7.916;2023-03-24T07:22:03;12.40;99.90
10155;DHT22;5118;48.570;7.916;2023-03-24T07:24:51;12.40;99.90
10155;DHT22;5118;48.570;7.916;2023-03-24T07:27:42;12.40;99.90
10155;DHT22;5118;48.570;7.916;2023-03-24T07:30:10;12.40;99.90
10155;DHT22;5118;48.570;7.916;2023-03-24T07:32:42;12.40;99.90
10155;DHT22;5118;48.570;7.916;2023-03-24T07:35:11;12.40;99.90
10155;DHT22;5118;48.570;7.916;2023-03-24T07:37:40;12.50;99.90
10155;DHT22;5118;48.570;7.916;2023-03-24T07:40:11;12.50;99.90
10155;DHT22;5118;48.570;7.916;2023-03-24T07:42:40;12.50;99.90
10155;DHT22;5118;48.570;7.916;2023-03-24T07:45:31;12.50;99.90
10155;DHT22;5118;48.570;7.916;2023-03-24T07:48:00;12.60;99.90
10155;DHT22;5118;48.570;7.916;2023-03-24T07:50:33;12.60;99.90
10155;DHT22;5118;48.570;7.916;2023-03-24T07:53:08;12.60;99.90
10155;DHT22;5118;48.570;7.916;2023-03-24T07:55:38;12.70;99.90
10155;DHT22;5118;48.570;7.916;2023-03-24T07:58:12;12.70;99.90
10155;DHT22;5118;48.570;7.916;2023-03-24T08:00:53;12.80;99.90
10155;DHT22;5118;48.570;7.916;2023-03-24T08:03:29;12.80;99.90
10155;DHT22;5118;48.570;7.916;2023-03-24T08:06:15;12.90;99.90
10155;DHT22;5118;48.570;7.916;2023-03-24T08:08:49;12.90;99.90
10155;DHT22;5118;48.570;7.916;2023-03-24T08:11:19;13.00;99.90
10155;DHT22;5118;48.570;7.916;2023-03-24T08:13:47;13.00;99.90
10155;DHT22;5118;48.570;7.916;2023-03-24T08:16:16;13.00;99.90
10155;DHT22;5118;48.570;7.916;2023-03-24T08:18:44;13.00;99.90
10155;DHT22;5118;48.570;7.916;2023-03-24T08:21:14;13.00;99.90
10155;DHT22;5118;48.570;7.916;2023-03-24T08:23:42;13.00;99.90
10155;DHT22;5118;48.570;7.916;2023-03-24T08:26:11;13.00;99.90
10155;DHT22;5118;48.570;7.916;2023-03-24T08:28:41;13.10;99.90
10155;DHT22;5118;48.570;7.916;2023-03-24T08:31:10;13.10;99.90
10155;DHT22;5118;48.570;7.916;2023-03-24T08:33:38;13.10;99.90
10155;DHT22;5118;48.570;7.916;2023-03-24T08:36:07;13.10;99.90
10155;DHT22;5118;48.570;7.916;2023-03-24T08:38:36;13.10;99.90
10155;DHT22;5118;48.570;7.916;2023-03-24T08:41:05;13.20;99.90
10155;DHT22;5118;48.570;7.916;2023-03-24T08:43:35;13.20;99.90
10155;DHT22;5118;48.570;7.916;2023-03-24T08:46:06;13.30;99.90
10155;DHT22;5118;48.570;7.916;2023-03-24T08:48:38;13.40;99.90
10155;DHT22;5118;48.570;7.916;2023-03-24T08:51:11;13.40;99.90
10155;DHT22;5118;48.570;7.916;2023-03-24T08:53:40;13.50;99.90
10155;DHT22;5118;48.570;7.916;2023-03-24T08:56:09;13.50;99.90
10155;DHT22;5118;48.570;7.916;2023-03-24T08:58:38;13.50;99.90
10155;DHT22;5118;48.570;7.916;2023-03-24T09:01:08;13.50;99.90
10155;DHT22;5118;48.570;7.916;2023-03-24T09:03:36;13.60;99.90
10155;DHT22;5118;48.570;7.916;2023-03-24T09:06:06;13.60;99.90
10155;DHT22;5118;48.570;7.916;2023-03-24T09:08:34;13.60;99.90
10155;DHT22;5118;48.570;7.916;2023-03-24T09:11:04;13.60;99.90
10155;DHT22;5118;48.570;7.916;2023-03-24T09:13:32;13.70;99.90
10155;DHT22;5118;48.570;7.916;2023-03-24T09:16:02;13.70;99.90
10155;DHT22;5118;48.570;7.916;2023-03-24T09:18:32;13.70;99.90
10155;DHT22;5118;48.570;7.916;2023-03-24T09:21:01;13.70;99.90
10155;DHT22;5118;48.570;7.916;2023-03-24T09:23:30;13.70;99.90
10155;DHT22;5118;48.570;7.916;2023-03-24T09:25:59;13.70;99.90
10155;DHT22;5118;48.570;7.916;2023-03-24T09:28:27;13.60;99.90
10155;DHT22;5118;48.570;7.916;2023-03-24T09:30:57;13.70;99.90
10155;DHT22;5118;48.570;7.916;2023-03-24T09:33:26;13.70;99.90
10155;DHT22;5118;48.570;7.916;2023-03-24T09:35:58;13.70;99.90
10155;DHT22;5118;48.570;7.916;2023-03-24T09:38:28;13.70;99.90
10155;DHT22;5118;48.570;7.916;2023-03-24T09:40:58;13.70;99.90
10155;DHT22;5118;48.570;7.916;2023-03-24T09:43:33;13.80;99.90
10155;DHT22;5118;48.570;7.916;2023-03-24T09:46:08;13.80;99.90
10155;DHT22;5118;48.570;7.916;2023-03-24T09:48:42;13.90;99.90
10155;DHT22;5118;48.570;7.916;2023-03-24T09:51:18;13.90;99.90
10155;DHT22;5118;48.570;7.916;2023-03-24T09:53:51;14.00;99.90
10155;DHT22;5118;48.570;7.916;2023-03-24T09:56:23;14.00;99.90
10155;DHT22;5118;48.570;7.916;2023-03-24T09:59:02;14.10;99.90
10155;DHT22;5118;48.570;7.916;2023-03-24T10:01:32;14.20;99.90
10155;DHT22;5118;48.570;7.916;2023-03-24T10:04:01;14.30;99.90
10155;DHT22;5118;48.570;7.916;2023-03-24T10:06:36;14.30;99.90
10155;DHT22;5118;48.570;7.916;2023-03-24T10:09:19;14.30;99.90
10155;DHT22;5118;48.570;7.916;2023-03-24T10:11:58;14.40;99.90
10155;DHT22;5118;48.570;7.916;2023-03-24T10:14:43;14.40;99.90
10155;DHT22;5118;48.570;7.916;2023-03-24T10:17:20;14.40;99.90
10155;DHT22;5118;48.570;7.916;2023-03-24T10:19:54;14.40;99.90
10155;DHT22;5118;48.570;7.916;2023-03-24T10:22:31;14.40;99.90
10155;DHT22;5118;48.570;7.916;2023-03-24T10:25:10;14.40;99.90
10155;DHT22;5118;48.570;7.916;2023-03-24T10:27:43;14.30;99.90
10155;DHT22;5118;48.570;7.916;2023-03-24T10:30:16;14.20;99.90
10155;DHT22;5118;48.570;7.916;2023-03-24T10:32:46;14.00;99.90
10155;DHT22;5118;48.570;7.916;2023-03-24T10:35:17;13.70;99.90
10155;DHT22;5118;48.570;7.916;2023-03-24T10:37:48;13.50;99.90
10155;DHT22;5118;48.570;7.916;2023-03-24T10:40:19;13.40;99.90
10155;DHT22;5118;48.570;7.916;2023-03-24T10:42:50;13.30;99.90
10155;DHT22;5118;48.570;7.916;2023-03-24T10:45:37;13.20;99.90
10155;DHT22;5118;48.570;7.916;2023-03-24T10:48:06;13.20;99.90
10155;DHT22;5118;48.570;7.916;2023-03-24T10:50:41;13.10;99.90
10155;DHT22;5118;48.570;7.916;2023-03-24T10:53:17;13.10;99.90
10155;DHT22;5118;48.570;7.916;2023-03-24T10:55:46;13.10;99.90
10155;DHT22;5118;48.570;7.916;2023-03-24T10:58:29;13.10;99.90
10155;DHT22;5118;48.570;7.916;2023-03-24T11:00:58;13.10;99.90
10155;DHT22;5118;48.570;7.916;2023-03-24T11:03:29;13.20;99.90
10155;DHT22;5118;48.570;7.916;2023-03-24T11:06:00;13.20;99.90
10155;DHT22;5118;48.570;7.916;2023-03-24T11:08:34;13.30;99.90
10155;DHT22;5118;48.570;7.916;2023-03-24T11:11:14;13.30;99.90
10155;DHT22;5118;48.570;7.916;2023-03-24T11:13:53;13.20;99.90
10155;DHT22;5118;48.570;7.916;2023-03-24T11:16:26;13.20;99.90
10155;DHT22;5118;48.570;7.916;2023-03-24T11:18:57;13.20;99.90
10155;DHT22;5118;48.570;7.916;2023-03-24T11:21:26;13.20;99.90
10155;DHT22;5118;48.570;7.916;2023-03-24T11:23:58;13.20;99.90
10155;DHT22;5118;48.570;7.916;2023-03-24T11:26:29;13.10;99.90
10155;DHT22;5118;48.570;7.916;2023-03-24T11:29:01;13.00;99.90
10155;DHT22;5118;48.570;7.916;2023-03-24T11:31:31;13.00;99.90
10155;DHT22;5118;48.570;7.916;2023-03-24T11:34:07;12.90;99.90
10155;DHT22;5118;48.570;7.916;2023-03-24T11:36:41;12.90;99.90
10155;DHT22;5118;48.570;7.916;2023-03-24T11:39:17;12.80;99.90
10155;DHT22;5118;48.570;7.916;2023-03-24T11:42:14;12.80;99.90
10155;DHT22;5118;48.570;7.916;2023-03-24T11:44:46;12.70;99.90
10155;DHT22;5118;48.570;7.916;2023-03-24T11:47:25;12.60;99.90
10155;DHT22;5118;48.570;7.916;2023-03-24T11:50:12;12.60;99.90
10155;DHT22;5118;48.570;7.916;2023-03-24T11:52:46;12.40;99.90
10155;DHT22;5118;48.570;7.916;2023-03-24T11:55:24;12.30;99.90
10155;DHT22;5118;48.570;7.916;2023-03-24T11:58:01;12.20;99.90
10155;DHT22;5118;48.570;7.916;2023-03-24T12:01:05;12.20;99.90
10155;DHT22;5118;48.570;7.916;2023-03-24T12:03:57;12.20;99.90
10155;DHT22;5118;48.570;7.916;2023-03-24T12:06:41;12.20;99.90
10155;DHT22;5118;48.570;7.916;2023-03-24T12:09:20;12.20;99.90
10155;DHT22;5118;48.570;7.916;2023-03-24T12:12:12;12.20;99.90
10155;DHT22;5118;48.570;7.916;2023-03-24T12:14:52;12.20;99.90
10155;DHT22;5118;48.570;7.916;2023-03-24T12:17:29;12.20;99.90
10155;DHT22;5118;48.570;7.916;2023-03-24T12:20:10;12.30;99.90
10155;DHT22;5118;48.570;7.916;2023-03-24T12:22:53;12.40;99.90
10155;DHT22;5118;48.570;7.916;2023-03-24T12:25:31;12.50;99.90
10155;DHT22;5118;48.570;7.916;2023-03-24T12:28:16;12.50;99.90
10155;DHT22;5118;48.570;7.916;2023-03-24T12:30:58;12.60;99.90
10155;DHT22;5118;48.570;7.916;2023-03-24T12:33:36;12.70;99.90
10155;DHT22;5118;48.570;7.916;2023-03-24T12:36:31;12.70;99.90
10155;DHT22;5118;48.570;7.916;2023-03-24T12:39:08;12.80;99.90
10155;DHT22;5118;48.570;7.916;2023-03-24T12:41:44;12.80;99.90
10155;DHT22;5118;48.570;7.916;2023-03-24T12:44:39;12.90;99.90
10155;DHT22;5118;48.570;7.916;2023-03-24T12:47:22;12.90;99.90
10155;DHT22;5118;48.570;7.916;2023-03-24T12:50:06;12.90;99.90
10155;DHT22;5118;48.570;7.916;2023-03-24T12:52:50;13.00;99.90
10155;DHT22;5118;48.570;7.916;2023-03-24T12:55:38;13.00;99.90
10155;DHT22;5118;48.570;7.916;2023-03-24T12:58:13;13.10;99.90
10155;DHT22;5118;48.570;7.916;2023-03-24T13:00:54;13.10;99.90
10155;DHT22;5118;48.570;7.916;2023-03-24T13:03:29;13.10;99.90
10155;DHT22;5118;48.570;7.916;2023-03-24T13:06:11;13.00;99.90
10155;DHT22;5118;48.570;7.916;2023-03-24T13:08:52;12.90;99.90
10155;DHT22;5118;48.570;7.916;2023-03-24T13:11:30;12.70;99.90
10155;DHT22;5118;48.570;7.916;2023-03-24T13:14:04;12.60;99.90
10155;DHT22;5118;48.570;7.916;2023-03-24T13:16:37;12.50;99.90
10155;DHT22;5118;48.570;7.916;2023-03-24T13:19:15;12.50;99.90
10155;DHT22;5118;48.570;7.916;2023-03-24T13:21:45;12.50;99.90
10155;DHT22;5118;48.570;7.916;2023-03-24T13:24:16;12.40;99.90
10155;DHT22;5118;48.570;7.916;2023-03-24T13:26:51;12.40;99.90
10155;DHT22;5118;48.570;7.916;2023-03-24T13:32:28;12.10;99.90
10155;DHT22;5118;48.570;7.916;2023-03-24T13:35:03;11.90;99.90
10155;DHT22;5118;48.570;7.916;2023-03-24T13:37:36;11.80;99.90
10155;DHT22;5118;48.570;7.916;2023-03-24T13:40:09;11.80;99.90
10155;DHT22;5118;48.570;7.916;2023-03-24T13:42:42;11.90;99.90
10155;DHT22;5118;48.570;7.916;2023-03-24T13:45:26;11.90;99.90
10155;DHT22;5118;48.570;7.916;2023-03-24T13:48:14;11.90;99.90
10155;DHT22;5118;48.570;7.916;2023-03-24T13:50:53;11.90;99.90
10155;DHT22;5118;48.570;7.916;2023-03-24T13:53:31;12.10;99.90
10155;DHT22;5118;48.570;7.916;2023-03-24T13:56:01;12.20;99.90
10155;DHT22;5118;48.570;7.916;2023-03-24T13:59:06;12.30;99.90
10155;DHT22;5118;48.570;7.916;2023-03-24T14:01:37;12.40;99.90
10155;DHT22;5118;48.570;7.916;2023-03-24T14:04:26;12.40;99.90
10155;DHT22;5118;48.570;7.916;2023-03-24T14:06:56;12.30;99.90
10155;DHT22;5118;48.570;7.916;2023-03-24T14:09:27;12.30;99.90
10155;DHT22;5118;48.570;7.916;2023-03-24T14:12:16;12.40;99.90
10155;DHT22;5118;48.570;7.916;2023-03-24T14:15:12;12.30;99.90
10155;DHT22;5118;48.570;7.916;2023-03-24T14:17:46;12.30;99.90
10155;DHT22;5118;48.570;7.916;2023-03-24T14:20:31;12.20;99.90
10155;DHT22;5118;48.570;7.916;2023-03-24T14:23:02;12.20;99.90
10155;DHT22;5118;48.570;7.916;2023-03-24T14:25:31;12.20;99.90
10155;DHT22;5118;48.570;7.916;2023-03-24T14:28:22;12.10;99.90
10155;DHT22;5118;48.570;7.916;2023-03-24T14:30:59;12.10;99.90
10155;DHT22;5118;48.570;7.916;2023-03-24T14:33:29;12.10;99.90
10155;DHT22;5118;48.570;7.916;2023-03-24T14:36:03;12.10;99.90
10155;DHT22;5118;48.570;7.916;2023-03-24T14:38:40;12.20;99.90
10155;DHT22;5118;48.570;7.916;2023-03-24T14:41:13;12.20;99.90
10155;DHT22;5118;48.570;7.916;2023-03-24T14:43:54;12.30;99.90
10155;DHT22;5118;48.570;7.916;2023-03-24T14:46:43;12.70;99.90
10155;DHT22;5118;48.570;7.916;2023-03-24T14:49:22;13.40;99.90
10155;DHT22;5118;48.570;7.916;2023-03-24T14:51:57;13.80;99.90
10155;DHT22;5118;48.570;7.916;2023-03-24T14:54:35;13.90;99.90
10155;DHT22;5118;48.570;7.916;2023-03-24T14:57:05;13.80;99.90
10155;DHT22;5118;48.570;7.916;2023-03-24T14:59:39;13.80;99.90
10155;DHT22;5118;48.570;7.916;2023-03-24T15:02:26;14.10;99.90
10155;DHT22;5118;48.570;7.916;2023-03-24T15:05:20;14.60;99.90
10155;DHT22;5118;48.570;7.916;2023-03-24T15:08:10;14.60;99.90
10155;DHT22;5118;48.570;7.916;2023-03-24T15:10:42;14.70;99.90
10155;DHT22;5118;48.570;7.916;2023-03-24T15:13:31;14.80;99.90
10155;DHT22;5118;48.570;7.916;2023-03-24T15:16:03;15.20;99.90
10155;DHT22;5118;48.570;7.916;2023-03-24T15:18:34;15.70;99.90
10155;DHT22;5118;48.570;7.916;2023-03-24T15:21:13;16.10;99.90
10155;DHT22;5118;48.570;7.916;2023-03-24T15:23:49;16.70;99.90
10155;DHT22;5118;48.570;7.916;2023-03-24T15:26:19;17.40;99.90
10155;DHT22;5118;48.570;7.916;2023-03-24T15:28:56;17.60;99.90
10155;DHT22;5118;48.570;7.916;2023-03-24T15:31:26;17.30;99.90
10155;DHT22;5118;48.570;7.916;2023-03-24T15:34:05;16.90;99.90
10155;DHT22;5118;48.570;7.916;2023-03-24T15:36:38;16.50;99.90
10155;DHT22;5118;48.570;7.916;2023-03-24T15:39:19;16.70;99.90
10155;DHT22;5118;48.570;7.916;2023-03-24T15:41:50;17.20;99.90
10155;DHT22;5118;48.570;7.916;2023-03-24T15:44:23;17.30;99.90
10155;DHT22;5118;48.570;7.916;2023-03-24T15:46:54;17.00;99.90
10155;DHT22;5118;48.570;7.916;2023-03-24T15:49:29;16.60;99.90
10155;DHT22;5118;48.570;7.916;2023-03-24T15:52:00;16.30;99.90
10155;DHT22;5118;48.570;7.916;2023-03-24T15:54:35;16.20;99.90
10155;DHT22;5118;48.570;7.916;2023-03-24T15:57:15;16.20;99.90
10155;DHT22;5118;48.570;7.916;2023-03-24T15:59:46;16.30;99.90
10155;DHT22;5118;48.570;7.916;2023-03-24T16:02:27;16.60;99.90
10155;DHT22;5118;48.570;7.916;2023-03-24T16:04:59;16.60;99.90
10155;DHT22;5118;48.570;7.916;2023-03-24T16:07:38;16.70;99.90
10155;DHT22;5118;48.570;7.916;2023-03-24T16:10:27;17.20;99.90
10155;DHT22;5118;48.570;7.916;2023-03-24T16:13:10;17.80;99.90
10155;DHT22;5118;48.570;7.916;2023-03-24T16:15:41;18.40;99.90
10155;DHT22;5118;48.570;7.916;2023-03-24T16:18:13;18.90;99.90
10155;DHT22;5118;48.570;7.916;2023-03-24T16:20:42;19.10;99.90
10155;DHT22;5118;48.570;7.916;2023-03-24T16:23:10;19.30;99.90
10155;DHT22;5118;48.570;7.916;2023-03-24T16:25:40;19.30;99.90
10155;DHT22;5118;48.570;7.916;2023-03-24T16:28:10;19.40;99.90
10155;DHT22;5118;48.570;7.916;2023-03-24T16:30:40;19.60;99.90
10155;DHT22;5118;48.570;7.916;2023-03-24T16:33:10;19.60;99.90
10155;DHT22;5118;48.570;7.916;2023-03-24T16:35:39;19.40;99.90
10155;DHT22;5118;48.570;7.916;2023-03-24T16:38:09;19.50;99.90
10155;DHT22;5118;48.570;7.916;2023-03-24T16:40:43;19.40;99.90
10155;DHT22;5118;48.570;7.916;2023-03-24T16:43:12;19.30;99.90
10155;DHT22;5118;48.570;7.916;2023-03-24T16:45:41;19.20;99.90
10155;DHT22;5118;48.570;7.916;2023-03-24T16:48:10;19.10;99.90